createdAt,value
2018-07-28T00:00:51.412Z,95.90
2018-07-28T00:03:19.753Z,96.00
2018-07-28T00:05:48.103Z,95.80
2018-07-28T00:08:16.439Z,95.30
2018-07-28T00:10:44.838Z,95.30
2018-07-28T00:13:13.144Z,95.20
2018-07-28T00:15:41.524Z,95.20
2018-07-28T00:18:09.849Z,95.80
2018-07-28T00:20:38.225Z,95.80
2018-07-28T00:23:06.608Z,95.90
2018-07-28T00:25:37.804Z,96.00
2018-07-28T00:28:06.945Z,96.40
2018-07-28T00:30:35.287Z,96.40
2018-07-28T00:33:03.610Z,96.40
2018-07-28T00:35:31.971Z,96.70
2018-07-28T00:38:00.270Z,96.90
2018-07-28T00:40:28.608Z,96.90
2018-07-28T00:42:56.959Z,97.10
2018-07-28T00:45:25.241Z,97.10
2018-07-28T00:47:53.584Z,96.90
2018-07-28T00:50:21.944Z,96.90
2018-07-28T00:52:50.378Z,96.90
2018-07-28T00:55:18.759Z,97.30
2018-07-28T01:00:15.161Z,97.80
2018-07-28T01:02:43.496Z,97.80
2018-07-28T01:05:11.847Z,97.10
2018-07-28T01:07:40.143Z,96.90
2018-07-28T01:12:36.745Z,97.00
2018-07-28T01:15:07.900Z,96.80
2018-07-28T01:17:36.258Z,96.90
2018-07-28T01:20:06.263Z,96.90
2018-07-28T01:22:34.573Z,97.10
2018-07-28T01:25:02.989Z,97.40
2018-07-28T01:27:31.371Z,97.20
2018-07-28T01:29:59.681Z,97.70
2018-07-28T01:32:27.980Z,97.80
2018-07-28T01:34:56.283Z,97.90
2018-07-28T01:37:24.580Z,98.00
2018-07-28T01:39:52.905Z,98.20
2018-07-28T01:42:21.242Z,98.30
2018-07-28T01:44:49.566Z,98.50
2018-07-28T01:47:17.917Z,98.50
2018-07-28T01:49:46.297Z,98.40
2018-07-28T01:52:14.692Z,98.40
2018-07-28T01:54:43.059Z,98.50
2018-07-28T01:57:11.398Z,98.50
2018-07-28T01:59:39.768Z,98.60
2018-07-28T02:02:08.141Z,98.60
2018-07-28T02:04:36.505Z,99.00
2018-07-28T02:07:05.288Z,98.90
2018-07-28T02:09:33.666Z,98.80
2018-07-28T02:12:02.025Z,98.70
2018-07-28T02:14:30.364Z,99.10
2018-07-28T02:16:58.734Z,99.00
2018-07-28T02:19:27.114Z,98.50
2018-07-28T02:21:55.450Z,98.40
2018-07-28T02:24:23.832Z,98.60
2018-07-28T02:26:52.155Z,98.80
2018-07-28T02:29:20.534Z,98.70
2018-07-28T02:31:48.917Z,98.60
2018-07-28T02:34:17.270Z,99.60
2018-07-28T02:36:45.664Z,99.90
2018-07-28T02:41:42.433Z,99.90
2018-07-28T02:44:10.765Z,99.60
2018-07-28T02:46:39.078Z,99.00
2018-07-28T02:49:07.672Z,98.60
2018-07-28T02:51:36.036Z,98.80
2018-07-28T02:54:05.203Z,98.30
2018-07-28T02:56:33.567Z,98.00
2018-07-28T02:59:01.867Z,98.20
2018-07-28T03:01:30.173Z,98.00
2018-07-28T03:03:58.483Z,97.80
2018-07-28T03:06:26.774Z,97.70
2018-07-28T03:08:55.162Z,97.50
2018-07-28T03:11:23.478Z,97.20
2018-07-28T03:13:51.850Z,96.90
2018-07-28T03:16:20.187Z,97.40
2018-07-28T03:18:48.540Z,97.50
2018-07-28T03:21:16.873Z,98.30
2018-07-28T03:23:45.169Z,98.70
2018-07-28T03:26:13.527Z,98.80
2018-07-28T03:28:41.896Z,99.10
2018-07-28T03:31:10.250Z,99.40
2018-07-28T03:33:38.573Z,99.50
2018-07-28T03:36:06.903Z,99.60
2018-07-28T03:38:35.239Z,99.40
2018-07-28T03:41:03.590Z,99.40
2018-07-28T03:43:31.919Z,99.30
2018-07-28T03:46:00.248Z,99.30
2018-07-28T03:48:28.576Z,99.40
2018-07-28T03:50:56.931Z,99.50
2018-07-28T03:53:25.282Z,99.50
2018-07-28T03:55:53.649Z,99.50
2018-07-28T03:58:22.000Z,99.60
2018-07-28T04:00:50.310Z,99.60
2018-07-28T04:03:18.641Z,99.20
2018-07-28T04:05:46.973Z,98.90
2018-07-28T04:08:15.365Z,98.80
2018-07-28T04:10:43.678Z,99.00
2018-07-28T04:13:12.002Z,98.90
2018-07-28T04:15:40.342Z,99.10
2018-07-28T04:18:08.664Z,99.20
2018-07-28T04:20:37.149Z,99.50
2018-07-28T04:23:05.526Z,99.30
2018-07-28T04:25:33.843Z,99.60
2018-07-28T04:28:02.228Z,99.20
2018-07-28T04:30:30.545Z,99.20
2018-07-28T04:32:58.863Z,99.50
2018-07-28T04:35:27.198Z,99.60
2018-07-28T04:37:55.542Z,99.60
2018-07-28T04:40:23.906Z,99.90
2018-07-28T04:42:52.231Z,99.90
2018-07-28T04:50:16.663Z,99.90
2018-07-28T04:52:44.995Z,99.90
2018-07-28T04:55:13.312Z,99.80
2018-07-28T04:57:41.624Z,99.40
2018-07-28T05:00:09.982Z,99.00
2018-07-28T05:02:38.294Z,99.00
2018-07-28T05:05:06.615Z,99.00
2018-07-28T05:07:35.072Z,98.80
2018-07-28T05:10:03.261Z,98.20
2018-07-28T05:17:27.734Z,98.10
2018-07-28T05:19:56.085Z,97.80
2018-07-28T05:22:24.453Z,97.50
2018-07-28T05:24:52.826Z,97.30
2018-07-28T05:27:21.178Z,97.10
2018-07-28T05:29:49.522Z,97.30
2018-07-28T05:32:17.853Z,97.70
2018-07-28T05:34:46.221Z,98.40
2018-07-28T05:37:14.591Z,99.00
2018-07-28T05:39:42.898Z,99.00
2018-07-28T05:42:11.210Z,99.20
2018-07-28T05:47:07.606Z,99.20
2018-07-28T05:49:35.934Z,99.20
2018-07-28T05:52:04.275Z,99.10
2018-07-28T05:54:32.610Z,98.70
2018-07-28T05:57:00.929Z,98.30
2018-07-28T05:59:29.277Z,98.40
2018-07-28T06:01:57.593Z,98.10
2018-07-28T06:04:25.883Z,98.10
2018-07-28T06:06:54.289Z,99.00
2018-07-28T06:09:22.764Z,98.00
2018-07-28T06:11:51.106Z,97.80
2018-07-28T06:14:19.473Z,98.20
2018-07-28T06:16:47.865Z,98.10
2018-07-28T06:19:16.262Z,97.80
2018-07-28T06:21:44.689Z,98.30
2018-07-28T06:24:13.033Z,99.20
2018-07-28T06:26:41.464Z,99.80
2018-07-28T06:29:09.918Z,99.90
2018-07-28T06:31:38.405Z,99.90
2018-07-28T06:34:06.649Z,99.90
2018-07-28T06:36:35.202Z,99.90
2018-07-28T06:39:03.616Z,99.90
2018-07-28T06:41:31.904Z,99.90
2018-07-28T06:44:00.513Z,99.90
2018-07-28T06:46:28.922Z,99.90
2018-07-28T06:48:57.274Z,99.90
2018-07-28T06:53:53.671Z,99.90
2018-07-28T06:56:22.005Z,99.90
2018-07-28T06:58:50.581Z,99.90
2018-07-28T07:01:19.158Z,99.90
2018-07-28T07:03:47.661Z,99.90
2018-07-28T07:06:16.053Z,99.90
2018-07-28T07:08:44.390Z,99.90
2018-07-28T07:11:12.758Z,99.90
2018-07-28T07:13:41.679Z,99.90
2018-07-28T07:16:10.034Z,99.90
2018-07-28T07:18:38.379Z,99.90
2018-07-28T07:21:06.742Z,99.90
2018-07-28T07:23:35.429Z,99.90
2018-07-28T07:26:03.812Z,99.90
2018-07-28T07:28:32.138Z,99.90
2018-07-28T07:31:00.489Z,99.90
2018-07-28T07:33:29.317Z,99.90
2018-07-28T07:38:25.752Z,99.90
2018-07-28T07:40:54.310Z,99.90
2018-07-28T07:43:22.848Z,99.90
2018-07-28T07:45:51.235Z,99.90
2018-07-28T07:48:20.283Z,99.90
2018-07-28T07:50:48.666Z,99.90
2018-07-28T07:53:16.988Z,99.90
2018-07-28T07:55:45.365Z,99.90
2018-07-28T07:58:13.764Z,99.90
2018-07-28T08:00:42.208Z,99.90
2018-07-28T08:05:38.833Z,99.90
2018-07-28T08:08:07.195Z,99.90
2018-07-28T08:10:35.529Z,99.90
2018-07-28T08:13:03.871Z,99.90
2018-07-28T08:15:32.285Z,99.90
2018-07-28T08:20:28.696Z,99.90
2018-07-28T08:22:57.070Z,99.90
2018-07-28T08:25:25.389Z,99.90
2018-07-28T08:30:21.998Z,99.90
2018-07-28T08:32:50.560Z,99.90
2018-07-28T08:35:19.001Z,99.90
2018-07-28T08:37:47.472Z,99.90
2018-07-28T08:40:15.895Z,99.90
2018-07-28T08:42:44.348Z,99.90
2018-07-28T08:45:12.729Z,99.90
2018-07-28T08:47:41.060Z,99.90
2018-07-28T08:50:09.447Z,99.20
2018-07-28T08:52:37.832Z,96.40
2018-07-28T08:55:06.181Z,97.10
2018-07-28T08:57:34.554Z,99.10
2018-07-28T09:00:02.924Z,99.00
2018-07-28T09:02:31.281Z,95.80
2018-07-28T09:04:59.725Z,95.20
2018-07-28T09:07:28.048Z,94.60
2018-07-28T09:09:56.401Z,93.50
2018-07-28T09:12:24.785Z,97.50
2018-07-28T09:14:53.120Z,96.20
2018-07-28T09:17:21.638Z,96.30
2018-07-28T09:19:49.937Z,96.60
2018-07-28T09:22:18.343Z,95.10
2018-07-28T09:24:46.720Z,96.40
2018-07-28T09:29:43.351Z,93.70
2018-07-28T09:32:11.666Z,92.70
2018-07-28T09:34:40.053Z,92.80
2018-07-28T09:37:08.417Z,92.70
2018-07-28T09:39:36.777Z,91.00
2018-07-28T09:42:05.154Z,92.80
2018-07-28T09:44:33.895Z,91.40
2018-07-28T09:47:02.335Z,92.30
2018-07-28T09:49:30.632Z,91.60
2018-07-28T09:51:58.988Z,91.10
2018-07-28T09:56:55.719Z,90.90
2018-07-28T09:59:24.075Z,92.00
2018-07-28T10:01:52.413Z,90.70
2018-07-28T10:04:20.752Z,90.20
2018-07-28T10:06:49.102Z,90.40
2018-07-28T10:09:17.409Z,91.00
2018-07-28T10:11:45.780Z,90.00
2018-07-28T10:14:14.178Z,89.10
2018-07-28T10:16:42.532Z,89.80
2018-07-28T10:19:10.867Z,89.00
2018-07-28T10:21:39.295Z,87.80
2018-07-28T10:24:07.976Z,88.80
2018-07-28T10:26:36.315Z,88.80
2018-07-28T10:29:04.904Z,88.50
2018-07-28T10:31:33.281Z,87.40
2018-07-28T10:34:01.598Z,86.50
2018-07-28T10:36:30.048Z,87.30
2018-07-28T10:38:58.306Z,85.40
2018-07-28T10:41:26.686Z,89.10
2018-07-28T10:43:55.053Z,83.70
2018-07-28T10:46:23.372Z,84.20
2018-07-28T10:48:52.160Z,85.00
2018-07-28T10:53:48.682Z,86.50
2018-07-28T10:56:17.051Z,77.50
2018-07-28T10:58:45.421Z,79.30
2018-07-28T11:01:13.855Z,77.60
2018-07-28T11:03:42.635Z,78.40
2018-07-28T11:06:10.986Z,77.60
2018-07-28T11:08:39.385Z,79.70
2018-07-28T11:11:07.740Z,78.30
2018-07-28T11:13:36.097Z,78.20
2018-07-28T11:16:04.497Z,77.50
2018-07-28T11:18:32.948Z,78.60
2018-07-28T11:21:01.337Z,79.70
2018-07-28T11:23:40.943Z,78.40
2018-07-28T11:26:09.610Z,80.30
2018-07-28T11:28:37.957Z,81.60
2018-07-28T11:31:12.491Z,82.60
2018-07-28T11:33:52.090Z,84.10
2018-07-28T11:36:31.801Z,83.70
2018-07-28T11:39:11.462Z,84.40
2018-07-28T11:41:51.204Z,85.40
2018-07-28T11:46:54.921Z,93.20
2018-07-28T11:49:23.435Z,99.90
2018-07-28T11:51:52.368Z,99.90
2018-07-28T11:54:20.765Z,99.90
2018-07-28T11:56:49.151Z,99.90
2018-07-28T11:59:17.524Z,99.90
2018-07-28T12:01:45.918Z,99.90
2018-07-28T12:04:14.304Z,99.90
2018-07-28T12:09:10.780Z,99.90
2018-07-28T12:11:39.160Z,99.90
2018-07-28T12:14:07.516Z,99.90
2018-07-28T12:16:35.869Z,99.90
2018-07-28T12:19:04.226Z,99.90
2018-07-28T12:21:32.578Z,99.90
2018-07-28T12:24:00.990Z,99.90
2018-07-28T12:26:29.337Z,99.90
2018-07-28T12:28:57.691Z,99.90
2018-07-28T12:31:26.125Z,99.90
2018-07-28T12:36:22.680Z,99.90
2018-07-28T12:38:51.012Z,99.90
2018-07-28T12:41:19.356Z,99.90
2018-07-28T12:43:47.698Z,99.90
2018-07-28T12:46:16.049Z,99.90
2018-07-28T12:48:44.416Z,99.90
2018-07-28T12:51:12.742Z,99.90
2018-07-28T12:53:41.157Z,99.90
2018-07-28T12:56:09.571Z,99.90
2018-07-28T12:58:37.890Z,99.90
2018-07-28T13:01:06.284Z,97.20
2018-07-28T13:06:02.681Z,95.80
2018-07-28T13:08:31.026Z,94.20
2018-07-28T13:10:59.358Z,94.00
2018-07-28T13:13:28.064Z,92.70
2018-07-28T13:15:56.361Z,90.60
2018-07-28T13:18:24.664Z,91.70
2018-07-28T13:20:59.017Z,93.40
2018-07-28T13:23:27.392Z,92.30
2018-07-28T13:25:55.794Z,92.60
2018-07-28T13:28:24.123Z,93.80
2018-07-28T13:30:52.543Z,92.60
2018-07-28T13:33:23.098Z,91.00
2018-07-28T13:35:52.302Z,90.60
2018-07-28T13:38:20.680Z,87.10
2018-07-28T13:40:49.013Z,84.30
2018-07-28T13:43:17.874Z,82.10
2018-07-28T13:45:46.270Z,81.80
2018-07-28T13:48:14.652Z,80.90
2018-07-28T13:50:43.013Z,79.50
2018-07-28T13:53:11.365Z,81.00
2018-07-28T13:55:39.706Z,79.20
2018-07-28T13:58:08.119Z,81.00
2018-07-28T14:00:36.481Z,80.20
2018-07-28T14:03:04.935Z,81.60
2018-07-28T14:05:33.286Z,82.90
2018-07-28T14:08:01.665Z,81.60
2018-07-28T14:10:30.010Z,82.00
2018-07-28T14:12:58.460Z,82.20
2018-07-28T14:15:26.894Z,79.20
2018-07-28T14:17:55.304Z,76.80
2018-07-28T14:20:23.619Z,77.10
2018-07-28T14:22:51.989Z,77.70
2018-07-28T14:25:20.378Z,79.20
2018-07-28T14:27:48.822Z,79.50
2018-07-28T14:30:17.176Z,80.60
2018-07-28T14:32:45.591Z,81.40
2018-07-28T14:35:13.949Z,81.30
2018-07-28T14:37:42.297Z,81.80
2018-07-28T14:40:10.641Z,79.80
2018-07-28T14:42:38.989Z,80.10
2018-07-28T14:45:08.404Z,76.40
2018-07-28T14:47:36.760Z,74.40
2018-07-28T14:50:05.179Z,73.70
2018-07-28T14:52:33.633Z,71.10
2018-07-28T14:55:02.017Z,68.40
2018-07-28T14:57:30.453Z,71.50
2018-07-28T14:59:58.788Z,73.80
2018-07-28T15:02:27.097Z,73.90
2018-07-28T15:04:55.490Z,73.20
2018-07-28T15:07:23.872Z,75.40
2018-07-28T15:09:52.211Z,75.20
2018-07-28T15:12:20.631Z,75.50
2018-07-28T15:14:49.044Z,73.20
2018-07-28T15:17:17.421Z,73.80
2018-07-28T15:19:45.758Z,76.00
2018-07-28T15:22:14.104Z,77.40
2018-07-28T15:24:42.474Z,77.70
2018-07-28T15:27:10.810Z,78.60
2018-07-28T15:29:39.303Z,79.30
2018-07-28T15:32:07.654Z,80.00
2018-07-28T15:34:36.025Z,81.30
2018-07-28T15:37:04.380Z,80.40
2018-07-28T15:39:32.765Z,81.70
2018-07-28T15:42:01.200Z,81.90
2018-07-28T15:44:29.561Z,82.10
2018-07-28T15:46:57.917Z,80.00
2018-07-28T15:49:26.288Z,78.10
2018-07-28T15:51:54.635Z,76.10
2018-07-28T15:54:23.006Z,76.40
2018-07-28T15:56:51.352Z,77.30
2018-07-28T15:59:19.746Z,78.40
2018-07-28T16:01:48.168Z,79.50
2018-07-28T16:04:16.493Z,81.00
2018-07-28T16:06:44.886Z,80.60
2018-07-28T16:09:13.223Z,80.40
2018-07-28T16:11:41.600Z,81.10
2018-07-28T16:14:09.929Z,81.40
2018-07-28T16:16:38.370Z,82.40
2018-07-28T16:19:06.737Z,83.10
2018-07-28T16:21:35.062Z,82.70
2018-07-28T16:24:03.405Z,82.80
2018-07-28T16:26:31.757Z,83.30
2018-07-28T16:29:00.125Z,83.50
2018-07-28T16:31:28.613Z,83.30
2018-07-28T16:33:57.297Z,83.50
2018-07-28T16:36:25.645Z,83.00
2018-07-28T16:38:53.994Z,82.00
2018-07-28T16:41:22.363Z,81.00
2018-07-28T16:43:50.719Z,79.60
2018-07-28T16:46:19.109Z,77.80
2018-07-28T16:48:47.484Z,77.60
2018-07-28T16:53:43.939Z,78.00
2018-07-28T16:56:12.289Z,79.20
2018-07-28T16:58:40.635Z,78.30
2018-07-28T17:01:09.032Z,76.90
2018-07-28T17:03:37.388Z,75.20
2018-07-28T17:06:06.034Z,74.90
2018-07-28T17:08:34.420Z,77.60
2018-07-28T17:11:02.768Z,78.90
2018-07-28T17:13:31.157Z,79.30
2018-07-28T17:15:59.517Z,79.40
2018-07-28T17:18:27.856Z,80.10
2018-07-28T17:20:56.213Z,81.30
2018-07-28T17:23:24.574Z,80.70
2018-07-28T17:25:52.976Z,80.40
2018-07-28T17:28:21.311Z,81.40
2018-07-28T17:30:49.766Z,82.70
2018-07-28T17:33:18.087Z,83.40
2018-07-28T17:38:14.546Z,84.10
2018-07-28T17:40:42.965Z,84.70
2018-07-28T17:43:11.462Z,85.70
2018-07-28T17:45:39.832Z,86.40
2018-07-28T17:48:08.266Z,86.50
2018-07-28T17:50:36.643Z,87.50
2018-07-28T17:53:04.991Z,87.20
2018-07-28T17:55:33.348Z,87.40
2018-07-28T17:58:01.724Z,87.00
2018-07-28T18:00:30.048Z,87.30
2018-07-28T18:05:26.451Z,86.60
2018-07-28T18:07:54.908Z,87.00
2018-07-28T18:10:23.299Z,86.40
2018-07-28T18:12:51.649Z,87.00
2018-07-28T18:15:20.067Z,86.30
2018-07-28T18:17:48.456Z,86.00
2018-07-28T18:20:16.833Z,86.40
2018-07-28T18:22:45.165Z,86.70
2018-07-28T18:25:13.532Z,86.80
2018-07-28T18:27:41.898Z,87.00
2018-07-28T18:30:10.289Z,86.90
2018-07-28T18:32:38.638Z,87.40
2018-07-28T18:35:07.002Z,87.60
2018-07-28T18:37:35.345Z,87.70
2018-07-28T18:40:03.879Z,88.00
2018-07-28T18:42:32.233Z,88.50
2018-07-28T18:45:00.593Z,89.80
2018-07-28T18:47:28.985Z,89.10
2018-07-28T18:49:57.299Z,89.70
2018-07-28T18:52:25.669Z,90.20
2018-07-28T18:54:54.039Z,89.80
2018-07-28T18:57:22.355Z,90.10
2018-07-28T18:59:50.709Z,90.20
2018-07-28T19:02:19.091Z,90.20
2018-07-28T19:04:47.530Z,90.20
2018-07-28T19:07:15.908Z,90.20
2018-07-28T19:09:50.273Z,90.20
2018-07-28T19:14:51.141Z,90.30
2018-07-28T19:17:19.547Z,90.40
2018-07-28T19:19:47.949Z,90.50
2018-07-28T19:22:21.599Z,90.50
2018-07-28T19:24:49.970Z,90.70
2018-07-28T19:27:18.358Z,90.90
2018-07-28T19:32:14.770Z,91.00
2018-07-28T19:34:43.179Z,91.30
2018-07-28T19:37:20.567Z,91.60
2018-07-28T19:39:48.905Z,91.50
2018-07-28T19:42:22.523Z,91.70
2018-07-28T19:44:50.929Z,91.80
2018-07-28T19:47:19.347Z,91.80
2018-07-28T19:49:47.753Z,91.90
2018-07-28T19:52:16.152Z,92.00
2018-07-28T19:54:44.518Z,92.00
2018-07-28T19:57:12.892Z,92.20
2018-07-28T19:59:41.241Z,92.50
2018-07-28T20:02:09.629Z,92.70
2018-07-28T20:04:38.013Z,92.80
2018-07-28T20:07:06.382Z,92.90
2018-07-28T20:09:34.754Z,94.10
2018-07-28T20:12:03.085Z,93.20
2018-07-28T20:14:31.426Z,93.40
2018-07-28T20:16:59.813Z,93.80
2018-07-28T20:19:28.140Z,94.00
2018-07-28T20:24:24.577Z,93.70
2018-07-28T20:26:52.977Z,93.60
2018-07-28T20:29:21.388Z,93.70
2018-07-28T20:31:49.755Z,93.70
2018-07-28T20:34:18.164Z,94.00
2018-07-28T20:36:46.508Z,93.90
2018-07-28T20:39:14.841Z,94.10
2018-07-28T20:41:43.201Z,94.50
2018-07-28T20:44:11.641Z,94.70
2018-07-28T20:46:40.024Z,94.80
2018-07-28T20:49:08.373Z,94.80
2018-07-28T20:51:36.715Z,94.80
2018-07-28T20:54:05.055Z,95.10
2018-07-28T20:56:33.384Z,95.00
2018-07-28T20:59:01.727Z,95.00
2018-07-28T21:01:30.332Z,95.00
2018-07-28T21:03:58.661Z,95.00
2018-07-28T21:06:27.034Z,95.20
2018-07-28T21:08:55.389Z,95.00
2018-07-28T21:13:51.821Z,95.00
2018-07-28T21:16:20.226Z,95.00
2018-07-28T21:18:48.577Z,95.00
2018-07-28T21:21:16.920Z,94.80
2018-07-28T21:23:45.380Z,95.30
2018-07-28T21:26:13.781Z,95.50
2018-07-28T21:28:42.134Z,95.80
2018-07-28T21:31:10.525Z,96.00
2018-07-28T21:33:38.983Z,96.40
2018-07-28T21:36:07.240Z,96.80
2018-07-28T21:38:35.610Z,97.30
2018-07-28T21:41:03.984Z,98.00
2018-07-28T21:43:32.405Z,98.40
2018-07-28T21:46:00.801Z,99.20
2018-07-28T21:48:29.187Z,99.30
2018-07-28T21:50:57.589Z,99.60
2018-07-28T21:53:25.944Z,99.90
2018-07-28T21:55:54.295Z,99.90
2018-07-28T22:01:16.495Z,99.90
2018-07-28T22:03:44.931Z,99.90
2018-07-28T22:06:13.389Z,99.90
2018-07-28T22:08:41.849Z,99.90
2018-07-28T22:11:10.196Z,99.90
2018-07-28T22:13:38.553Z,99.90
2018-07-28T22:16:06.978Z,99.90
2018-07-28T22:18:35.375Z,99.90
2018-07-28T22:21:03.744Z,99.90
2018-07-28T22:23:32.083Z,99.90
2018-07-28T22:26:00.827Z,99.90
2018-07-28T22:28:29.421Z,99.90
2018-07-28T22:30:57.750Z,99.90
2018-07-28T22:33:26.152Z,99.90
2018-07-28T22:35:54.487Z,99.90
2018-07-28T22:38:22.873Z,99.90
2018-07-28T22:40:51.276Z,99.90
2018-07-28T22:43:19.624Z,99.90
2018-07-28T22:45:47.984Z,99.90
2018-07-28T22:48:16.345Z,99.90
2018-07-28T22:53:12.713Z,99.90
2018-07-28T22:55:41.063Z,99.90
2018-07-28T22:58:09.428Z,99.90
2018-07-28T23:00:37.745Z,99.90
2018-07-28T23:03:06.118Z,99.90
2018-07-28T23:05:34.469Z,99.90
2018-07-28T23:08:02.805Z,99.90
2018-07-28T23:10:31.206Z,99.90
2018-07-28T23:12:59.535Z,99.90
2018-07-28T23:15:27.934Z,99.90
2018-07-28T23:17:56.265Z,99.90
2018-07-28T23:20:24.604Z,99.90
2018-07-28T23:22:52.926Z,99.90
2018-07-28T23:25:21.306Z,99.90
2018-07-28T23:27:49.719Z,99.90
2018-07-28T23:30:18.040Z,99.90
2018-07-28T23:32:46.375Z,99.90
2018-07-28T23:35:14.697Z,99.90
2018-07-28T23:37:43.031Z,99.90
2018-07-28T23:40:11.432Z,99.90
2018-07-28T23:42:39.772Z,99.90
2018-07-28T23:45:08.121Z,99.90
2018-07-28T23:47:36.504Z,99.90
2018-07-28T23:50:04.960Z,99.90
2018-07-28T23:52:33.305Z,99.90
2018-07-28T23:55:01.622Z,99.90
2018-07-28T23:57:29.959Z,99.90
2018-07-28T23:59:58.359Z,99.90
